Time;durP1;ratioP1;P1;durP2;ratioP2;P2;SDS_P1;SDS_P2;PMS_P1;PMS_P2;Temp;Humidity;BMP_temperature;BMP_pressure;BME280_temperature;BME280_humidity;BME280_pressure;Samples;Min_cycle;Max_cycle;Signal;HPM_P1;HPM_P2
2021/07/16 00:00:48;;;;;;;22.60;11.30;;;;;;;;;;5077185;28;20062;-87
2021/07/16 00:03:14;;;;;;;27.70;12.05;;;;;;;;;;5077394;28;20020;-87
2021/07/16 00:05:40;;;;;;;32.20;14.55;;;;;;;;;;5077135;28;20116;-87
2021/07/16 00:08:06;;;;;;;33.08;14.52;;;;;;;;;;5079203;28;20396;-88
2021/07/16 00:10:32;;;;;;;36.45;14.45;;;;;;;;;;5079898;28;20441;-87
2021/07/16 00:13:17;;;;;;;29.08;13.98;;;;;;;;;;5081101;28;20309;-88
2021/07/16 00:15:44;;;;;;;34.35;16.20;;;;;;;;;;5080827;28;20025;-87
2021/07/16 00:18:10;;;;;;;29.40;16.45;;;;;;;;;;5081241;28;20033;-87
2021/07/16 00:20:36;;;;;;;35.80;16.63;;;;;;;;;;5081066;28;20034;-87
2021/07/16 00:23:02;;;;;;;38.10;17.52;;;;;;;;;;5080702;28;20032;-87
2021/07/16 00:25:28;;;;;;;38.33;18.25;;;;;;;;;;5080603;28;20107;-87
2021/07/16 00:27:54;;;;;;;35.72;18.33;;;;;;;;;;5080921;28;20033;-88
2021/07/16 00:30:20;;;;;;;39.75;17.90;;;;;;;;;;5080912;28;20104;-88
2021/07/16 00:32:46;;;;;;;34.85;17.05;;;;;;;;;;5079594;28;20474;-87
2021/07/16 00:35:12;;;;;;;39.38;17.98;;;;;;;;;;5080000;28;20084;-88
2021/07/16 00:37:39;;;;;;;35.00;17.83;;;;;;;;;;5079433;28;20031;-86
2021/07/16 00:40:09;;;;;;;40.92;18.80;;;;;;;;;;5080667;28;20033;-85
2021/07/16 00:45:39;;;;;;;44.97;19.20;;;;;;;;;;5080392;28;20081;-85
2021/07/16 00:48:05;;;;;;;37.22;17.27;;;;;;;;;;5080193;28;20082;-84
2021/07/16 00:50:35;;;;;;;41.30;19.98;;;;;;;;;;5080588;28;20024;-84
2021/07/16 00:53:03;;;;;;;51.13;19.48;;;;;;;;;;5080007;28;20029;-84
2021/07/16 00:55:30;;;;;;;49.55;19.42;;;;;;;;;;5080105;28;20021;-84
2021/07/16 00:58:16;;;;;;;42.35;19.42;;;;;;;;;;5080056;28;20051;-84
2021/07/16 01:00:42;;;;;;;42.55;18.30;;;;;;;;;;5079022;28;20060;-84
2021/07/16 01:03:08;;;;;;;35.35;16.35;;;;;;;;;;5080096;28;20474;-85
2021/07/16 01:05:35;;;;;;;36.13;16.70;;;;;;;;;;5079914;28;20087;-84
2021/07/16 01:08:02;;;;;;;36.08;16.90;;;;;;;;;;5078979;28;20025;-85
2021/07/16 01:10:28;;;;;;;40.63;18.33;;;;;;;;;;5080209;28;20070;-85
2021/07/16 01:12:55;;;;;;;35.05;17.10;;;;;;;;;;5080129;28;20112;-85
2021/07/16 01:15:22;;;;;;;31.15;16.02;;;;;;;;;;5078840;28;20025;-85
2021/07/16 01:17:48;;;;;;;30.08;16.35;;;;;;;;;;5079353;28;20426;-85
2021/07/16 01:20:15;;;;;;;32.75;15.25;;;;;;;;;;5078879;28;20035;-85
2021/07/16 01:22:43;;;;;;;30.05;15.52;;;;;;;;;;5078565;28;20036;-85
2021/07/16 01:25:11;;;;;;;25.73;15.18;;;;;;;;;;5079829;28;20032;-85
2021/07/16 01:27:57;;;;;;;29.88;15.32;;;;;;;;;;5078576;28;20025;-84
2021/07/16 01:30:25;;;;;;;29.13;14.65;;;;;;;;;;5079798;28;20017;-85
2021/07/16 01:32:52;;;;;;;24.63;13.98;;;;;;;;;;5079880;28;20028;-86
2021/07/16 01:35:19;;;;;;;27.55;13.98;;;;;;;;;;5079380;28;20127;-85
2021/07/16 01:37:46;;;;;;;29.33;14.25;;;;;;;;;;5078772;28;20464;-86
2021/07/16 01:40:13;;;;;;;30.95;15.20;;;;;;;;;;5079648;28;20028;-86
2021/07/16 01:42:40;;;;;;;22.65;14.15;;;;;;;;;;5079347;28;20111;-86
2021/07/16 01:45:10;;;;;;;24.90;14.15;;;;;;;;;;5079125;28;20021;-86
2021/07/16 01:47:38;;;;;;;29.33;14.88;;;;;;;;;;5079137;28;20481;-86
2021/07/16 01:50:04;;;;;;;25.27;14.55;;;;;;;;;;5079462;28;20112;-86
2021/07/16 01:52:30;;;;;;;31.65;15.38;;;;;;;;;;5079759;28;20036;-86
2021/07/16 01:54:56;;;;;;;25.55;14.57;;;;;;;;;;5079171;28;20423;-86
2021/07/16 01:57:22;;;;;;;28.13;15.02;;;;;;;;;;5079086;28;20029;-87
2021/07/16 01:59:48;;;;;;;24.70;12.82;;;;;;;;;;5079235;28;20334;-86
2021/07/16 02:02:15;;;;;;;23.77;13.10;;;;;;;;;;5078873;28;20363;-86
2021/07/16 02:04:42;;;;;;;20.33;12.80;;;;;;;;;;5077758;28;20044;-87
2021/07/16 02:07:08;;;;;;;20.50;12.60;;;;;;;;;;5077911;28;20029;-86
2021/07/16 02:09:34;;;;;;;23.15;12.25;;;;;;;;;;5078336;28;20299;-86
2021/07/16 02:12:00;;;;;;;17.00;11.60;;;;;;;;;;5078739;28;20023;-84
2021/07/16 02:14:27;;;;;;;24.13;12.98;;;;;;;;;;5078550;28;20017;-84
2021/07/16 02:16:54;;;;;;;20.02;12.68;;;;;;;;;;5078646;28;20038;-84
2021/07/16 02:19:21;;;;;;;19.42;12.75;;;;;;;;;;5077505;28;20437;-84
2021/07/16 02:21:47;;;;;;;18.88;12.25;;;;;;;;;;5078921;28;20031;-84
2021/07/16 02:24:13;;;;;;;23.48;13.00;;;;;;;;;;5078431;28;20107;-84
2021/07/16 02:30:01;;;;;;;21.35;12.77;;;;;;;;;;5077872;28;20414;-83
2021/07/16 02:32:27;;;;;;;22.13;13.65;;;;;;;;;;5078460;28;20028;-84
2021/07/16 02:34:53;;;;;;;20.63;13.15;;;;;;;;;;5077964;28;20049;-84
2021/07/16 02:37:19;;;;;;;22.30;13.30;;;;;;;;;;5078041;28;20115;-84
2021/07/16 02:39:45;;;;;;;24.60;14.30;;;;;;;;;;5078255;28;20044;-86
2021/07/16 02:42:11;;;;;;;22.70;14.50;;;;;;;;;;5078292;28;20032;-84
2021/07/16 02:44:37;;;;;;;24.55;15.23;;;;;;;;;;5077895;28;20115;-85
2021/07/16 02:47:03;;;;;;;26.98;16.35;;;;;;;;;;5077959;28;20025;-85
2021/07/16 02:49:29;;;;;;;21.70;15.43;;;;;;;;;;5077922;28;20028;-85
2021/07/16 02:51:55;;;;;;;23.83;15.63;;;;;;;;;;5077077;28;20021;-84
2021/07/16 02:54:21;;;;;;;22.75;15.23;;;;;;;;;;5077940;28;20184;-84
2021/07/16 02:57:06;;;;;;;26.27;16.20;;;;;;;;;;5077677;28;20029;-84
2021/07/16 02:59:32;;;;;;;25.00;17.95;;;;;;;;;;5077761;28;20035;-85
2021/07/16 03:01:59;;;;;;;24.48;17.40;;;;;;;;;;5077738;28;20020;-85
2021/07/16 03:04:25;;;;;;;28.63;17.42;;;;;;;;;;5076669;28;20086;-85
2021/07/16 03:06:51;;;;;;;27.08;18.20;;;;;;;;;;5077563;28;20033;-84
2021/07/16 03:09:17;;;;;;;27.60;20.15;;;;;;;;;;5077826;28;20021;-85
2021/07/16 03:11:44;;;;;;;30.10;20.27;;;;;;;;;;5076799;28;20028;-85
2021/07/16 03:17:14;;;;;;;30.33;19.17;;;;;;;;;;5077739;28;20314;-85
2021/07/16 03:19:40;;;;;;;29.98;19.63;;;;;;;;;;5077863;28;20024;-84
2021/07/16 03:22:06;;;;;;;27.05;18.23;;;;;;;;;;5076579;28;20024;-85
2021/07/16 03:24:32;;;;;;;28.40;19.15;;;;;;;;;;5077417;28;20040;-85
2021/07/16 03:26:58;;;;;;;33.90;19.90;;;;;;;;;;5076606;28;20025;-85
2021/07/16 03:29:24;;;;;;;33.33;19.00;;;;;;;;;;5077706;28;20021;-85
2021/07/16 03:31:50;;;;;;;28.50;19.50;;;;;;;;;;5076667;28;20028;-85
2021/07/16 03:34:16;;;;;;;31.38;21.25;;;;;;;;;;5077219;28;20039;-83
2021/07/16 03:36:42;;;;;;;30.25;22.30;;;;;;;;;;5077461;28;20021;-85
2021/07/16 03:39:09;;;;;;;31.92;21.00;;;;;;;;;;5077709;28;20132;-84
2021/07/16 03:41:37;;;;;;;32.05;19.55;;;;;;;;;;5078977;28;20071;-85
2021/07/16 03:44:03;;;;;;;30.80;18.73;;;;;;;;;;5081682;28;20036;-84
2021/07/16 03:46:29;;;;;;;29.05;20.05;;;;;;;;;;5081372;28;20429;-84
2021/07/16 03:48:56;;;;;;;29.63;19.60;;;;;;;;;;5080668;28;20292;-85
2021/07/16 03:51:22;;;;;;;29.17;18.83;;;;;;;;;;5081583;28;20047;-84
2021/07/16 03:53:48;;;;;;;34.55;18.27;;;;;;;;;;5081565;28;20013;-84
2021/07/16 03:56:14;;;;;;;30.27;19.13;;;;;;;;;;5081334;28;20055;-84
2021/07/16 03:58:41;;;;;;;31.27;19.60;;;;;;;;;;5081610;28;20090;-84
2021/07/16 04:01:07;;;;;;;30.83;18.30;;;;;;;;;;5081135;28;20028;-84
2021/07/16 04:03:33;;;;;;;26.73;17.75;;;;;;;;;;5081293;28;20025;-84
2021/07/16 04:05:59;;;;;;;26.75;17.58;;;;;;;;;;5080014;28;20177;-84
2021/07/16 04:08:25;;;;;;;29.95;16.90;;;;;;;;;;5080027;28;20064;-84
2021/07/16 04:10:51;;;;;;;23.08;15.35;;;;;;;;;;5081159;28;20040;-84
2021/07/16 04:13:17;;;;;;;17.77;12.80;;;;;;;;;;5080180;28;20048;-84
2021/07/16 04:15:43;;;;;;;20.35;13.68;;;;;;;;;;5081240;28;20095;-84
2021/07/16 04:18:11;;;;;;;16.80;11.75;;;;;;;;;;5080955;28;20032;-84
2021/07/16 04:20:37;;;;;;;16.00;11.88;;;;;;;;;;5081249;28;20357;-84
2021/07/16 04:23:04;;;;;;;18.02;12.23;;;;;;;;;;5080825;28;20024;-84
2021/07/16 04:25:30;;;;;;;15.02;11.55;;;;;;;;;;5081021;28;20029;-86
2021/07/16 04:27:57;;;;;;;14.27;11.50;;;;;;;;;;5081067;28;20040;-84
2021/07/16 04:30:24;;;;;;;15.98;10.65;;;;;;;;;;5079669;28;20035;-85
2021/07/16 04:32:51;;;;;;;16.45;10.85;;;;;;;;;;5080801;28;20349;-85
2021/07/16 04:35:17;;;;;;;15.95;11.05;;;;;;;;;;5080191;28;20174;-84
2021/07/16 04:37:44;;;;;;;14.32;10.23;;;;;;;;;;5080789;28;20111;-86
2021/07/16 04:40:11;;;;;;;15.70;10.38;;;;;;;;;;5080516;28;20039;-85
2021/07/16 04:45:41;;;;;;;11.32;10.20;;;;;;;;;;5080349;28;20032;-84
2021/07/16 04:48:07;;;;;;;13.80;11.15;;;;;;;;;;5080623;28;20095;-85
2021/07/16 04:50:33;;;;;;;13.40;11.48;;;;;;;;;;5080219;28;20081;-84
2021/07/16 04:53:00;;;;;;;12.75;10.43;;;;;;;;;;5079454;28;20429;-85
2021/07/16 04:55:26;;;;;;;15.90;11.57;;;;;;;;;;5080348;28;20108;-82
2021/07/16 04:58:29;;;;;;;16.92;12.10;;;;;;;;;;5079828;28;20035;-81
2021/07/16 05:00:55;;;;;;;14.85;12.23;;;;;;;;;;5079878;28;20025;-83
2021/07/16 05:03:21;;;;;;;15.65;12.55;;;;;;;;;;5079968;28;20036;-83
2021/07/16 05:05:48;;;;;;;18.20;12.38;;;;;;;;;;5079630;28;20124;-83
2021/07/16 05:08:14;;;;;;;18.55;12.85;;;;;;;;;;5079809;28;20021;-79
2021/07/16 05:10:40;;;;;;;17.80;12.73;;;;;;;;;;5079183;28;20021;-79
2021/07/16 05:13:06;;;;;;;18.02;12.30;;;;;;;;;;5078105;28;20021;-80
2021/07/16 05:15:32;;;;;;;18.40;12.73;;;;;;;;;;5089867;28;20426;-81
2021/07/16 05:17:58;;;;;;;17.55;13.07;;;;;;;;;;5082191;28;20037;-80
2021/07/16 05:20:24;;;;;;;14.88;12.13;;;;;;;;;;5079400;28;20033;-81
2021/07/16 05:22:55;;;;;;;16.50;12.95;;;;;;;;;;5079193;28;20025;-81
2021/07/16 05:25:23;;;;;;;19.40;13.93;;;;;;;;;;5079136;28;20025;-81
2021/07/16 05:27:49;;;;;;;15.68;12.60;;;;;;;;;;5078818;28;20115;-80
2021/07/16 05:30:15;;;;;;;22.92;14.48;;;;;;;;;;5077886;28;20021;-80
2021/07/16 05:32:41;;;;;;;16.38;13.68;;;;;;;;;;5078878;28;20046;-80
2021/07/16 05:35:08;;;;;;;19.88;13.18;;;;;;;;;;5077630;28;20080;-80
2021/07/16 05:37:34;;;;;;;21.88;14.25;;;;;;;;;;5078913;28;20060;-80
2021/07/16 05:40:00;;;;;;;20.80;14.00;;;;;;;;;;5079108;28;20029;-79
2021/07/16 05:42:26;;;;;;;18.20;13.43;;;;;;;;;;5078805;28;20410;-80
2021/07/16 05:44:53;;;;;;;17.08;13.88;;;;;;;;;;5078966;28;20066;-80
2021/07/16 05:47:20;;;;;;;16.85;13.60;;;;;;;;;;5078596;28;20033;-80
2021/07/16 05:49:46;;;;;;;20.38;14.75;;;;;;;;;;5077600;28;20043;-80
2021/07/16 05:52:12;;;;;;;15.35;13.07;;;;;;;;;;5078567;28;20027;-80
2021/07/16 05:54:38;;;;;;;20.08;13.57;;;;;;;;;;5077601;28;20020;-81
2021/07/16 05:57:04;;;;;;;19.92;14.23;;;;;;;;;;5078540;28;20052;-81
2021/07/16 05:59:30;;;;;;;21.00;15.38;;;;;;;;;;5078442;28;20039;-81
2021/07/16 06:01:56;;;;;;;21.67;14.88;;;;;;;;;;5077318;28;20061;-81
2021/07/16 06:04:22;;;;;;;21.75;15.52;;;;;;;;;;5076506;28;20135;-81
2021/07/16 06:06:48;;;;;;;24.63;17.83;;;;;;;;;;5076837;28;20035;-80
2021/07/16 06:09:15;;;;;;;22.02;16.75;;;;;;;;;;5078299;28;20032;-81
2021/07/16 06:11:41;;;;;;;22.67;17.50;;;;;;;;;;5077111;28;20066;-80
2021/07/16 06:14:07;;;;;;;25.52;17.38;;;;;;;;;;5078048;28;20099;-81
2021/07/16 06:16:33;;;;;;;23.55;17.75;;;;;;;;;;5077757;28;20025;-80
2021/07/16 06:18:59;;;;;;;28.92;18.38;;;;;;;;;;5084136;28;20057;-80
2021/07/16 06:21:25;;;;;;;24.50;17.55;;;;;;;;;;5091564;28;20035;-79
2021/07/16 06:23:52;;;;;;;22.85;18.33;;;;;;;;;;5098187;28;20031;-82
2021/07/16 06:26:18;;;;;;;28.65;19.60;;;;;;;;;;5098150;28;20027;-80
2021/07/16 06:28:44;;;;;;;24.20;17.88;;;;;;;;;;5097235;28;20028;-81
2021/07/16 06:31:10;;;;;;;26.63;18.60;;;;;;;;;;5098403;28;20044;-81
2021/07/16 06:33:36;;;;;;;27.58;18.52;;;;;;;;;;5098206;28;20042;-81
2021/07/16 06:36:02;;;;;;;27.23;19.25;;;;;;;;;;5097627;28;20056;-81
2021/07/16 06:38:28;;;;;;;23.38;17.02;;;;;;;;;;5097985;28;20028;-82
2021/07/16 06:40:54;;;;;;;20.58;15.60;;;;;;;;;;5097328;28;20410;-81
2021/07/16 06:43:21;;;;;;;18.65;13.95;;;;;;;;;;5097982;28;20041;-80
2021/07/16 06:45:47;;;;;;;17.90;14.82;;;;;;;;;;5098423;28;20070;-81
2021/07/16 06:48:13;;;;;;;26.73;18.23;;;;;;;;;;5098147;28;20095;-82
2021/07/16 06:50:39;;;;;;;21.27;16.55;;;;;;;;;;5097113;28;20032;-82
2021/07/16 06:53:05;;;;;;;18.67;15.20;;;;;;;;;;5097715;28;20028;-82
2021/07/16 06:55:31;;;;;;;16.90;15.02;;;;;;;;;;5096971;28;20039;-82
2021/07/16 06:57:57;;;;;;;18.88;14.15;;;;;;;;;;5097621;28;20352;-82
2021/07/16 07:00:23;;;;;;;19.98;13.88;;;;;;;;;;5097943;28;20031;-83
2021/07/16 07:02:49;;;;;;;15.98;12.50;;;;;;;;;;5096862;28;20308;-82
2021/07/16 07:05:15;;;;;;;19.10;14.18;;;;;;;;;;5097536;28;20322;-82
2021/07/16 07:07:41;;;;;;;20.35;13.85;;;;;;;;;;5096705;28;20028;-84
2021/07/16 07:10:09;;;;;;;20.88;14.50;;;;;;;;;;5097531;28;20123;-83
2021/07/16 07:12:38;;;;;;;18.88;13.13;;;;;;;;;;5097499;28;20035;-83
2021/07/16 07:15:05;;;;;;;20.00;14.25;;;;;;;;;;5097431;28;20033;-84
2021/07/16 07:17:31;;;;;;;17.75;14.63;;;;;;;;;;5097162;28;20106;-83
2021/07/16 07:19:57;;;;;;;18.48;14.23;;;;;;;;;;5097435;28;20024;-82
2021/07/16 07:22:23;;;;;;;17.13;14.77;;;;;;;;;;5096256;28;20070;-83
2021/07/16 07:24:49;;;;;;;19.80;16.38;;;;;;;;;;5097107;28;20039;-83
2021/07/16 07:27:15;;;;;;;19.45;16.23;;;;;;;;;;5097142;28;20113;-84
2021/07/16 07:29:41;;;;;;;19.95;17.85;;;;;;;;;;5097157;28;20032;-83
2021/07/16 07:32:08;;;;;;;18.92;16.98;;;;;;;;;;5097224;28;20028;-83
2021/07/16 07:34:34;;;;;;;20.63;16.98;;;;;;;;;;5097024;28;20032;-83
2021/07/16 07:37:01;;;;;;;18.40;14.75;;;;;;;;;;5097329;28;20059;-83
2021/07/16 07:39:28;;;;;;;16.80;13.32;;;;;;;;;;5097260;28;20034;-87
2021/07/16 07:41:54;;;;;;;20.67;13.57;;;;;;;;;;5096988;28;20016;-84
2021/07/16 07:44:20;;;;;;;19.13;12.77;;;;;;;;;;5097074;28;20028;-83
2021/07/16 07:46:46;;;;;;;17.77;12.95;;;;;;;;;;5096985;28;20051;-82
2021/07/16 07:49:13;;;;;;;14.85;12.88;;;;;;;;;;5097088;28;20021;-84
2021/07/16 07:51:40;;;;;;;18.65;13.07;;;;;;;;;;5096526;28;20069;-83
2021/07/16 07:54:06;;;;;;;17.65;13.00;;;;;;;;;;5097201;28;20028;-83
2021/07/16 07:56:33;;;;;;;20.58;13.73;;;;;;;;;;5096169;28;20123;-83
2021/07/16 07:58:59;;;;;;;17.42;14.18;;;;;;;;;;5096895;28;20036;-83
2021/07/16 08:01:26;;;;;;;19.05;12.68;;;;;;;;;;5097070;28;20027;-83
2021/07/16 08:03:52;;;;;;;16.90;12.63;;;;;;;;;;5096808;28;20410;-83
2021/07/16 08:06:18;;;;;;;24.70;15.65;;;;;;;;;;5097045;28;20050;-83
2021/07/16 08:08:44;;;;;;;21.17;14.15;;;;;;;;;;5096933;28;20287;-83
2021/07/16 08:11:11;;;;;;;15.85;13.18;;;;;;;;;;5096775;28;20058;-83
2021/07/16 08:13:37;;;;;;;16.10;12.52;;;;;;;;;;5096811;28;20016;-84
2021/07/16 08:16:03;;;;;;;16.58;11.95;;;;;;;;;;5096009;28;20322;-82
2021/07/16 08:18:29;;;;;;;15.98;11.52;;;;;;;;;;5096745;28;20024;-82
2021/07/16 08:20:56;;;;;;;19.45;11.45;;;;;;;;;;5096837;28;20032;-82
2021/07/16 08:23:23;;;;;;;21.58;11.55;;;;;;;;;;5096778;28;20309;-82
2021/07/16 08:25:49;;;;;;;16.83;10.90;;;;;;;;;;5096606;28;20365;-82
2021/07/16 08:28:15;;;;;;;17.13;10.68;;;;;;;;;;5097568;28;20429;-82
2021/07/16 08:30:41;;;;;;;13.38;10.88;;;;;;;;;;5100476;28;20406;-84
2021/07/16 08:33:07;;;;;;;15.85;10.65;;;;;;;;;;5100250;28;20027;-84
2021/07/16 08:35:33;;;;;;;13.98;10.38;;;;;;;;;;5100015;28;20338;-83
2021/07/16 08:37:59;;;;;;;16.40;9.65;;;;;;;;;;5099671;28;20086;-82
2021/07/16 08:40:25;;;;;;;11.68;9.25;;;;;;;;;;5100199;28;20040;-83
2021/07/16 08:42:52;;;;;;;16.00;9.95;;;;;;;;;;5100178;28;20064;-83
2021/07/16 08:45:18;;;;;;;12.23;9.10;;;;;;;;;;5099991;28;20036;-82
2021/07/16 08:47:45;;;;;;;11.85;8.95;;;;;;;;;;5099979;28;20020;-83
2021/07/16 08:50:12;;;;;;;13.32;9.60;;;;;;;;;;5099136;28;20081;-82
2021/07/16 08:52:40;;;;;;;14.77;9.40;;;;;;;;;;5100190;28;20020;-83
2021/07/16 08:55:07;;;;;;;10.27;8.88;;;;;;;;;;5098937;28;20330;-83
2021/07/16 08:57:33;;;;;;;29.42;10.48;;;;;;;;;;5100001;28;20393;-82
2021/07/16 08:59:59;;;;;;;16.60;10.63;;;;;;;;;;5099835;28;20047;-84
2021/07/16 09:02:28;;;;;;;12.13;9.80;;;;;;;;;;5099891;28;20020;-82
2021/07/16 09:04:58;;;;;;;11.95;9.00;;;;;;;;;;5099602;28;20035;-83
2021/07/16 09:07:25;;;;;;;11.95;9.27;;;;;;;;;;5095580;28;20028;-84
2021/07/16 09:09:51;;;;;;;12.60;9.00;;;;;;;;;;5099019;28;20028;-87
2021/07/16 09:12:17;;;;;;;14.00;9.85;;;;;;;;;;5099812;28;20024;-86
2021/07/16 09:14:43;;;;;;;12.07;9.80;;;;;;;;;;5090849;28;20095;-85
2021/07/16 09:17:10;;;;;;;14.30;9.90;;;;;;;;;;5082321;28;20035;-85
2021/07/16 09:19:39;;;;;;;10.65;9.40;;;;;;;;;;5090413;28;20107;-84
2021/07/16 09:22:09;;;;;;;12.80;8.75;;;;;;;;;;5098586;28;20020;-84
2021/07/16 09:24:36;;;;;;;10.45;8.20;;;;;;;;;;5098927;28;20130;-85
2021/07/16 09:27:03;;;;;;;10.88;7.60;;;;;;;;;;5099274;28;20035;-85
2021/07/16 09:29:30;;;;;;;11.57;8.18;;;;;;;;;;5098629;28;20339;-85
2021/07/16 09:32:04;;;;;;;11.10;7.15;;;;;;;;;;5099541;28;20022;-85
2021/07/16 09:34:30;;;;;;;10.30;7.30;;;;;;;;;;5099527;28;20073;-85
2021/07/16 09:36:57;;;;;;;13.77;7.38;;;;;;;;;;5099318;28;20058;-84
2021/07/16 09:39:25;;;;;;;10.82;7.50;;;;;;;;;;5099352;28;20031;-84
2021/07/16 09:41:55;;;;;;;9.82;7.30;;;;;;;;;;5099253;28;20127;-85
2021/07/16 09:44:29;;;;;;;12.13;7.57;;;;;;;;;;5098651;28;20055;-85
2021/07/16 09:47:16;;;;;;;8.27;6.97;;;;;;;;;;5099244;28;20032;-82
2021/07/16 09:49:42;;;;;;;11.07;7.28;;;;;;;;;;5098842;28;20036;-87
2021/07/16 09:52:10;;;;;;;9.90;7.10;;;;;;;;;;5099381;28;20107;-87
2021/07/16 09:54:36;;;;;;;10.93;7.10;;;;;;;;;;5098643;28;20032;-88
2021/07/16 09:57:02;;;;;;;9.90;7.00;;;;;;;;;;5099147;28;20024;-87
2021/07/16 09:59:29;;;;;;;10.02;6.78;;;;;;;;;;5098618;28;20318;-86
2021/07/16 10:01:55;;;;;;;11.13;7.07;;;;;;;;;;5098960;28;20028;-85
2021/07/16 10:04:23;;;;;;;8.75;6.43;;;;;;;;;;5099138;28;20107;-87
2021/07/16 10:06:50;;;;;;;10.73;6.53;;;;;;;;;;5099072;28;20062;-87
2021/07/16 10:09:17;;;;;;;16.63;6.90;;;;;;;;;;5099110;28;20141;-87
2021/07/16 10:11:47;;;;;;;9.75;6.38;;;;;;;;;;5099089;28;20021;-85
2021/07/16 10:14:14;;;;;;;9.88;6.57;;;;;;;;;;5098577;28;20474;-85
2021/07/16 10:16:43;;;;;;;14.18;9.80;;;;;;;;;;5098941;28;20317;-88
2021/07/16 10:19:09;;;;;;;27.15;22.95;;;;;;;;;;5098223;28;20118;-87
2021/07/16 10:21:37;;;;;;;18.38;7.32;;;;;;;;;;5097846;28;20414;-87
2021/07/16 10:24:03;;;;;;;25.13;16.77;;;;;;;;;;5098677;28;20046;-85
2021/07/16 10:26:30;;;;;;;10.52;8.18;;;;;;;;;;5098165;28;20044;-85
2021/07/16 10:28:56;;;;;;;7.57;6.55;;;;;;;;;;5098402;28;20024;-86
2021/07/16 10:31:32;;;;;;;10.85;6.90;;;;;;;;;;5098213;28;20016;-85
2021/07/16 10:34:02;;;;;;;8.77;6.72;;;;;;;;;;5098395;28;20024;-85
2021/07/16 10:36:55;;;;;;;8.32;6.30;;;;;;;;;;5097922;28;20441;-85
2021/07/16 10:39:22;;;;;;;9.18;6.60;;;;;;;;;;5096159;28;20036;-86
2021/07/16 10:41:49;;;;;;;12.00;6.70;;;;;;;;;;5097380;28;20059;-86
2021/07/16 10:44:15;;;;;;;8.95;5.60;;;;;;;;;;5098274;28;20024;-86
2021/07/16 10:46:45;;;;;;;7.03;5.93;;;;;;;;;;5098340;28;20032;-86
2021/07/16 10:49:12;;;;;;;8.38;6.53;;;;;;;;;;5098105;28;20027;-86
2021/07/16 10:51:40;;;;;;;7.95;6.30;;;;;;;;;;5097840;28;20063;-86
2021/07/16 10:54:10;;;;;;;8.38;6.68;;;;;;;;;;5098151;28;20079;-86
2021/07/16 10:56:40;;;;;;;11.25;6.80;;;;;;;;;;5097500;28;20173;-86
2021/07/16 10:59:07;;;;;;;10.02;6.68;;;;;;;;;;5097829;28;20028;-86
2021/07/16 11:01:35;;;;;;;8.05;6.55;;;;;;;;;;5097257;28;20437;-86
2021/07/16 11:04:02;;;;;;;8.57;6.68;;;;;;;;;;5098174;28;20107;-86
2021/07/16 11:06:48;;;;;;;7.60;6.15;;;;;;;;;;5096828;28;20039;-85
2021/07/16 11:09:31;;;;;;;7.35;6.40;;;;;;;;;;5097218;28;20444;-86
2021/07/16 11:12:17;;;;;;;7.80;6.75;;;;;;;;;;5097757;28;20024;-84
2021/07/16 11:14:44;;;;;;;10.48;6.50;;;;;;;;;;5096064;28;20437;-86
2021/07/16 11:17:10;;;;;;;6.70;6.10;;;;;;;;;;5077820;28;20032;-86
2021/07/16 11:19:36;;;;;;;8.25;6.47;;;;;;;;;;5077444;28;20032;-86
2021/07/16 11:22:04;;;;;;;7.55;6.45;;;;;;;;;;5095095;28;20407;-88
2021/07/16 11:24:32;;;;;;;10.73;6.30;;;;;;;;;;5097075;28;20027;-86
2021/07/16 11:26:58;;;;;;;8.60;6.90;;;;;;;;;;5097545;28;20038;-85
2021/07/16 11:29:45;;;;;;;9.93;6.55;;;;;;;;;;5096653;28;20107;-86
2021/07/16 11:32:12;;;;;;;8.77;5.65;;;;;;;;;;5097392;28;20016;-83
2021/07/16 11:34:46;;;;;;;8.00;6.80;;;;;;;;;;5097377;28;20061;-86
2021/07/16 11:37:21;;;;;;;10.23;7.50;;;;;;;;;;5096722;28;20429;-86
2021/07/16 11:39:52;;;;;;;8.40;6.32;;;;;;;;;;5098033;28;20098;-88
2021/07/16 11:42:18;;;;;;;10.77;7.07;;;;;;;;;;5096996;28;20032;-88
2021/07/16 11:44:44;;;;;;;12.63;8.38;;;;;;;;;;5097460;28;20024;-88
2021/07/16 11:47:18;;;;;;;13.32;9.60;;;;;;;;;;5096822;28;20052;-88
2021/07/16 11:49:45;;;;;;;19.75;9.73;;;;;;;;;;5097345;28;20024;-85
2021/07/16 11:52:14;;;;;;;10.88;8.02;;;;;;;;;;5096677;28;20433;-85
2021/07/16 11:54:40;;;;;;;9.57;8.13;;;;;;;;;;5097782;28;20027;-85
2021/07/16 11:57:07;;;;;;;25.25;14.77;;;;;;;;;;5097619;28;20030;-86
2021/07/16 11:59:33;;;;;;;9.23;7.22;;;;;;;;;;5090084;28;20071;-87
2021/07/16 12:02:12;;;;;;;9.98;7.40;;;;;;;;;;5077746;28;20066;-87
2021/07/16 12:04:39;;;;;;;14.35;8.60;;;;;;;;;;5079795;28;20043;-86
2021/07/16 12:07:05;;;;;;;16.98;9.23;;;;;;;;;;5080904;28;20434;-86
2021/07/16 12:09:42;;;;;;;11.32;8.43;;;;;;;;;;5080918;28;20027;-86
2021/07/16 12:12:10;;;;;;;9.63;8.35;;;;;;;;;;5080738;28;20029;-86
2021/07/16 12:14:49;;;;;;;18.77;9.32;;;;;;;;;;5079924;28;20052;-86
2021/07/16 12:17:17;;;;;;;15.90;8.88;;;;;;;;;;5079749;28;20025;-86
2021/07/16 12:19:43;;;;;;;14.05;8.98;;;;;;;;;;5080760;28;20060;-84
2021/07/16 12:22:09;;;;;;;11.15;8.43;;;;;;;;;;5079599;28;20051;-84
2021/07/16 12:24:36;;;;;;;10.90;8.25;;;;;;;;;;5080759;28;20071;-84
2021/07/16 12:27:06;;;;;;;13.10;8.52;;;;;;;;;;5080658;28;20037;-85
2021/07/16 12:29:32;;;;;;;9.70;7.65;;;;;;;;;;5080838;28;20021;-84
2021/07/16 12:31:58;;;;;;;9.45;7.80;;;;;;;;;;5079630;28;20025;-85
2021/07/16 12:34:28;;;;;;;9.65;7.90;;;;;;;;;;5080307;28;20066;-84
2021/07/16 12:37:10;;;;;;;9.68;7.85;;;;;;;;;;5080313;28;20137;-85
2021/07/16 12:39:37;;;;;;;12.15;7.85;;;;;;;;;;5080370;28;20033;-85
2021/07/16 12:42:07;;;;;;;10.70;7.50;;;;;;;;;;5079321;28;20472;-85
2021/07/16 12:44:33;;;;;;;8.75;7.85;;;;;;;;;;5080324;28;20029;-84
2021/07/16 12:47:00;;;;;;;12.13;8.02;;;;;;;;;;5080531;28;20036;-84
2021/07/16 12:49:26;;;;;;;11.73;7.90;;;;;;;;;;5079954;28;20418;-85
2021/07/16 12:51:52;;;;;;;8.85;7.95;;;;;;;;;;5080246;28;20032;-84
2021/07/16 12:54:19;;;;;;;9.43;7.85;;;;;;;;;;5080387;28;20020;-85
2021/07/16 12:56:45;;;;;;;9.25;8.35;;;;;;;;;;5080036;28;20035;-84
2021/07/16 12:59:22;;;;;;;9.93;8.48;;;;;;;;;;5078951;28;20028;-84
2021/07/16 13:01:49;;;;;;;9.57;8.40;;;;;;;;;;5080214;28;20027;-84
2021/07/16 13:04:19;;;;;;;14.27;8.93;;;;;;;;;;5079074;28;20111;-85
2021/07/16 13:06:45;;;;;;;12.48;8.57;;;;;;;;;;5079889;28;20029;-84
2021/07/16 13:09:18;;;;;;;12.25;9.35;;;;;;;;;;5079857;28;20103;-84
2021/07/16 13:11:56;;;;;;;9.48;8.38;;;;;;;;;;5079951;28;20044;-84
2021/07/16 13:14:23;;;;;;;10.93;8.18;;;;;;;;;;5079172;28;20028;-84
2021/07/16 13:16:49;;;;;;;13.23;8.95;;;;;;;;;;5079811;28;20429;-84
2021/07/16 13:19:15;;;;;;;13.13;9.35;;;;;;;;;;5079549;28;20035;-74
2021/07/16 13:21:41;;;;;;;17.08;9.85;;;;;;;;;;5079417;28;20031;-74
2021/07/16 13:24:07;;;;;;;13.48;9.50;;;;;;;;;;5079200;28;20028;-74
2021/07/16 13:26:34;;;;;;;22.27;10.80;;;;;;;;;;5078971;28;20066;-74
2021/07/16 13:29:03;;;;;;;20.15;9.65;;;;;;;;;;5078978;28;20021;-74
2021/07/16 13:31:30;;;;;;;14.27;9.32;;;;;;;;;;5078934;28;20032;-74
2021/07/16 13:33:57;;;;;;;17.83;9.15;;;;;;;;;;5078875;28;20032;-74
2021/07/16 13:36:23;;;;;;;14.13;9.10;;;;;;;;;;5078704;28;20178;-74
2021/07/16 13:38:49;;;;;;;9.68;8.32;;;;;;;;;;5078825;28;20029;-74
2021/07/16 13:41:15;;;;;;;10.10;8.32;;;;;;;;;;5078689;28;20021;-74
2021/07/16 13:43:41;;;;;;;11.50;8.93;;;;;;;;;;5078766;28;20077;-74
2021/07/16 13:46:07;;;;;;;11.35;7.93;;;;;;;;;;5078591;28;20412;-74
2021/07/16 13:48:34;;;;;;;8.52;7.72;;;;;;;;;;5078627;28;20021;-74
2021/07/16 13:51:01;;;;;;;9.18;8.10;;;;;;;;;;5078672;28;20022;-74
2021/07/16 13:53:27;;;;;;;15.27;8.70;;;;;;;;;;5078675;28;20013;-74
2021/07/16 13:55:53;;;;;;;15.10;9.13;;;;;;;;;;5078563;28;20070;-75
2021/07/16 13:58:19;;;;;;;11.88;8.93;;;;;;;;;;5078346;28;20036;-74
2021/07/16 14:00:45;;;;;;;10.50;8.85;;;;;;;;;;5078627;28;20048;-74
2021/07/16 14:03:11;;;;;;;13.40;9.05;;;;;;;;;;5078667;28;20021;-76
2021/07/16 14:05:37;;;;;;;13.15;8.30;;;;;;;;;;5078336;28;20032;-76
2021/07/16 14:08:03;;;;;;;12.38;9.00;;;;;;;;;;5078466;28;20029;-76
2021/07/16 14:10:29;;;;;;;11.20;8.85;;;;;;;;;;5078219;28;20021;-79
2021/07/16 14:12:55;;;;;;;13.35;9.38;;;;;;;;;;5078102;28;20318;-79
2021/07/16 14:15:22;;;;;;;9.95;8.77;;;;;;;;;;5078372;28;20017;-79
2021/07/16 14:17:51;;;;;;;10.63;7.93;;;;;;;;;;5078076;28;20123;-79
2021/07/16 14:20:17;;;;;;;12.52;8.95;;;;;;;;;;5076696;28;20039;-79
2021/07/16 14:22:43;;;;;;;11.10;9.48;;;;;;;;;;5077979;28;20021;-79
2021/07/16 14:25:10;;;;;;;14.57;8.75;;;;;;;;;;5075920;28;20127;-78
2021/07/16 14:27:37;;;;;;;11.27;9.68;;;;;;;;;;5077241;28;20035;-79
2021/07/16 14:30:05;;;;;;;11.68;8.40;;;;;;;;;;5077647;28;20350;-79
2021/07/16 14:32:31;;;;;;;14.30;8.40;;;;;;;;;;5077918;28;20021;-79
2021/07/16 14:34:57;;;;;;;10.27;7.18;;;;;;;;;;5076986;28;20045;-79
2021/07/16 14:37:23;;;;;;;8.98;7.25;;;;;;;;;;5094813;28;20024;-79